Time;durP1;ratioP1;P1;durP2;ratioP2;P2;SDS_P1;SDS_P2;PMS_P1;PMS_P2;Temp;Humidity;BMP_temperature;BMP_pressure;BME280_temperature;BME280_humidity;BME280_pressure;Samples;Min_cycle;Max_cycle;Signal;HPM_P1;HPM_P2
2022/12/03 00:01:43;;;;;;;40.00;19.58;;;-0.60;72.50;;;;;;5055303;28;20037;-68
2022/12/03 00:04:11;;;;;;;45.03;21.88;;;-0.60;71.80;;;;;;5069988;28;20032;-68
2022/12/03 00:06:37;;;;;;;65.20;24.33;;;-0.70;71.70;;;;;;5049073;28;20025;-68
2022/12/03 00:09:04;;;;;;;44.50;19.85;;;-0.80;71.60;;;;;;5069700;28;20031;-68
2022/12/03 00:11:29;;;;;;;43.58;19.60;;;-0.90;71.80;;;;;;5067089;28;20108;-67
2022/12/03 00:13:55;;;;;;;37.20;20.02;;;-0.90;72.10;;;;;;5073120;28;20144;-67
2022/12/03 00:16:20;;;;;;;44.22;20.80;;;-1.00;70.60;;;;;;5071201;28;20021;-68
2022/12/03 00:18:46;;;;;;;50.78;23.60;;;-1.10;71.70;;;;;;5054947;28;20444;-68
2022/12/03 00:21:15;;;;;;;54.67;24.95;;;-1.10;71.50;;;;;;5050364;28;20025;-67
2022/12/03 00:23:40;;;;;;;92.88;37.67;;;-1.10;70.60;;;;;;5053297;28;20035;-67
2022/12/03 00:26:06;;;;;;;78.93;31.75;;;-1.10;70.20;;;;;;5063067;28;20120;-67
2022/12/03 00:28:31;;;;;;;54.22;24.23;;;-1.10;69.60;;;;;;5055018;28;20074;-69
2022/12/03 00:30:57;;;;;;;54.15;23.85;;;-1.10;69.20;;;;;;5048042;28;20332;-67
2022/12/03 00:33:22;;;;;;;52.47;24.70;;;-1.00;69.10;;;;;;5044937;28;20029;-68
2022/12/03 00:35:48;;;;;;;59.97;26.50;;;-1.00;69.10;;;;;;5049253;28;20419;-67
2022/12/03 00:38:14;;;;;;;57.75;26.10;;;-1.00;69.30;;;;;;5046751;28;20425;-67
2022/12/03 00:40:40;;;;;;;59.70;24.80;;;-1.00;69.10;;;;;;5060276;28;20428;-68
2022/12/03 00:43:05;;;;;;;66.60;26.35;;;-0.90;67.90;;;;;;5075991;28;20086;-67
2022/12/03 00:45:31;;;;;;;57.05;24.60;;;-0.80;68.40;;;;;;5052362;28;20031;-68
2022/12/03 00:47:56;;;;;;;65.32;25.48;;;-0.90;68.40;;;;;;5049690;28;20542;-67
2022/12/03 00:50:25;;;;;;;66.57;27.42;;;-0.80;68.30;;;;;;5057626;28;20040;-67
2022/12/03 00:52:50;;;;;;;90.25;30.63;;;-0.90;68.30;;;;;;5053708;28;20052;-67
2022/12/03 00:55:16;;;;;;;52.60;23.63;;;-0.90;68.90;;;;;;5066265;28;20068;-67
2022/12/03 00:57:42;;;;;;;53.60;24.40;;;-1.00;68.90;;;;;;5060307;28;20116;-68
2022/12/03 01:00:08;;;;;;;54.38;23.73;;;-0.90;68.00;;;;;;5055155;28;20025;-67
2022/12/03 01:02:34;;;;;;;52.53;24.73;;;-0.90;68.30;;;;;;5045395;28;20053;-67
2022/12/03 01:05:03;;;;;;;68.72;28.02;;;-0.90;68.30;;;;;;5060481;28;20063;-67
2022/12/03 01:07:29;;;;;;;49.20;23.02;;;-1.00;68.40;;;;;;5054393;28;20032;-67
2022/12/03 01:09:54;;;;;;;56.53;25.95;;;-1.00;68.20;;;;;;5044790;28;20038;-67
2022/12/03 01:12:20;;;;;;;57.38;25.10;;;-1.00;68.30;;;;;;5064526;28;20035;-68
2022/12/03 01:14:48;;;;;;;49.75;24.88;;;-1.10;68.80;;;;;;5069816;28;20107;-68
2022/12/03 01:17:14;;;;;;;55.75;25.67;;;-1.10;68.10;;;;;;5057373;28;20423;-67
2022/12/03 01:19:43;;;;;;;63.22;27.30;;;-0.90;67.10;;;;;;5051436;28;20103;-67
2022/12/03 01:22:11;;;;;;;54.97;26.25;;;-0.80;67.40;;;;;;5056064;28;20048;-67
2022/12/03 01:24:37;;;;;;;69.38;29.63;;;-0.70;67.10;;;;;;5057630;28;20045;-68
2022/12/03 01:27:02;;;;;;;67.63;30.67;;;-0.50;66.80;;;;;;5056580;28;20430;-67
2022/12/03 01:29:28;;;;;;;59.13;29.13;;;-0.40;67.00;;;;;;5055195;28;20028;-67
2022/12/03 01:34:41;;;;;;;59.95;27.25;;;-0.20;67.30;;;;;;5061936;28;20051;-67
2022/12/03 01:37:07;;;;;;;52.95;27.17;;;-0.10;67.10;;;;;;5055438;28;20111;-67
2022/12/03 01:39:33;;;;;;;59.58;27.10;;;0.00;67.00;;;;;;5060143;28;20104;-67
2022/12/03 01:41:58;;;;;;;49.05;25.90;;;0.10;67.30;;;;;;5067290;28;20021;-67
2022/12/03 01:44:30;;;;;;;65.50;28.20;;;0.20;66.90;;;;;;5048126;28;20405;-67
2022/12/03 01:47:01;;;;;;;61.63;28.55;;;0.20;67.50;;;;;;5055107;28;20055;-66
2022/12/03 01:49:32;;;;;;;53.38;26.92;;;0.30;67.60;;;;;;5059846;28;20021;-67
2022/12/03 01:51:58;;;;;;;62.33;28.85;;;0.30;67.60;;;;;;5060002;28;20025;-66
2022/12/03 01:54:39;;;;;;;49.17;26.50;;;0.40;67.90;;;;;;5069554;28;20067;-66
2022/12/03 01:57:33;;;;;;;48.88;26.30;;;0.40;67.90;;;;;;5066025;28;20112;-67
2022/12/03 01:59:59;;;;;;;64.07;29.90;;;0.50;68.20;;;;;;5056885;28;20016;-68
2022/12/03 02:02:30;;;;;;;61.13;28.70;;;0.50;69.20;;;;;;5051379;28;20078;-68
2022/12/03 02:04:56;;;;;;;60.17;29.15;;;0.40;69.70;;;;;;5058136;28;20480;-67
2022/12/03 02:07:28;;;;;;;65.55;32.50;;;0.40;69.90;;;;;;5068126;28;20409;-67
2022/12/03 02:09:56;;;;;;;75.22;32.95;;;0.40;70.00;;;;;;5071885;28;20025;-67
2022/12/03 02:12:41;;;;;;;67.93;32.63;;;0.40;69.90;;;;;;5062622;28;20117;-67
2022/12/03 02:15:08;;;;;;;74.03;32.15;;;0.50;69.90;;;;;;5070649;28;20060;-67
2022/12/03 02:17:34;;;;;;;57.35;28.83;;;0.50;70.10;;;;;;5053209;28;20032;-67
2022/12/03 02:20:04;;;;;;;53.10;27.85;;;0.50;69.80;;;;;;5047581;28;20040;-67
2022/12/03 02:22:51;;;;;;;71.18;33.28;;;0.60;68.60;;;;;;5055948;28;20068;-67
2022/12/03 02:25:22;;;;;;;51.95;25.98;;;0.60;69.70;;;;;;5057412;28;20050;-67
2022/12/03 02:27:48;;;;;;;64.45;30.35;;;0.60;68.60;;;;;;5058101;28;20035;-67
2022/12/03 02:30:18;;;;;;;68.63;32.90;;;0.60;70.00;;;;;;5070923;28;20031;-67
2022/12/03 02:32:43;;;;;;;54.20;28.60;;;0.60;69.60;;;;;;5059101;28;20381;-67
2022/12/03 02:35:14;;;;;;;53.80;28.45;;;0.60;70.00;;;;;;5064393;28;20028;-67
2022/12/03 02:37:41;;;;;;;77.13;33.50;;;0.60;69.40;;;;;;5072385;28;20027;-67
2022/12/03 02:40:13;;;;;;;54.08;28.73;;;0.60;70.20;;;;;;5060050;28;20033;-67
2022/12/03 02:42:40;;;;;;;64.75;30.00;;;0.60;70.20;;;;;;5073957;28;20086;-67
2022/12/03 02:45:11;;;;;;;57.20;29.10;;;0.60;70.30;;;;;;5065151;28;20048;-67
2022/12/03 02:47:52;;;;;;;46.65;25.67;;;0.70;68.70;;;;;;5059193;28;20447;-67
2022/12/03 02:50:25;;;;;;;50.90;26.98;;;0.80;69.00;;;;;;5050427;28;20386;-68
2022/12/03 02:52:54;;;;;;;57.25;29.02;;;0.80;70.40;;;;;;5058850;28;20055;-67
2022/12/03 02:55:21;;;;;;;54.03;27.60;;;0.80;71.30;;;;;;5053935;28;20087;-68
2022/12/03 02:57:48;;;;;;;64.38;30.88;;;0.80;72.60;;;;;;5050178;28;20025;-67
2022/12/03 03:00:15;;;;;;;59.25;30.33;;;0.70;73.40;;;;;;5048519;28;20033;-67
2022/12/03 03:02:41;;;;;;;73.00;32.88;;;0.70;74.00;;;;;;5050494;28;20031;-67
2022/12/03 03:05:10;;;;;;;60.47;29.77;;;0.70;74.90;;;;;;5044430;28;20376;-67
2022/12/03 03:07:37;;;;;;;62.35;31.42;;;0.70;75.50;;;;;;5045351;28;20021;-67
2022/12/03 03:10:05;;;;;;;57.42;29.90;;;0.70;76.10;;;;;;5047615;28;20078;-67
2022/12/03 03:12:31;;;;;;;62.55;30.63;;;0.80;75.40;;;;;;5045705;28;20037;-67
2022/12/03 03:15:04;;;;;;;58.50;29.30;;;0.90;74.80;;;;;;5043733;28;20040;-67
2022/12/03 03:17:30;;;;;;;59.78;30.40;;;0.90;76.40;;;;;;5068941;28;20374;-67
2022/12/03 03:19:55;;;;;;;55.10;27.63;;;0.80;77.60;;;;;;5062033;28;20060;-67
2022/12/03 03:22:21;;;;;;;54.50;28.10;;;0.90;77.10;;;;;;5053219;28;20029;-67
2022/12/03 03:24:46;;;;;;;56.88;28.88;;;0.90;78.70;;;;;;5055937;28;20129;-67
2022/12/03 03:27:12;;;;;;;51.70;28.23;;;0.90;79.50;;;;;;5067992;28;20025;-67
2022/12/03 03:29:37;;;;;;;52.03;26.25;;;0.90;79.90;;;;;;5069644;28;20022;-67
2022/12/03 03:32:03;;;;;;;62.13;29.27;;;0.90;81.10;;;;;;5058317;28;20053;-67
2022/12/03 03:34:31;;;;;;;59.72;30.35;;;0.90;81.30;;;;;;5057580;28;20437;-67
2022/12/03 03:36:56;;;;;;;53.17;27.60;;;0.80;81.80;;;;;;5071689;28;20028;-67
2022/12/03 03:39:22;;;;;;;55.55;27.30;;;0.90;81.10;;;;;;5058648;28;20310;-67
2022/12/03 03:41:48;;;;;;;61.22;29.83;;;0.90;82.40;;;;;;5065817;28;20445;-67
2022/12/03 03:44:16;;;;;;;61.85;30.38;;;0.90;82.90;;;;;;5068686;28;20051;-67
2022/12/03 03:46:45;;;;;;;59.92;29.85;;;0.90;83.10;;;;;;5068060;28;20029;-67
2022/12/03 03:49:11;;;;;;;62.83;28.83;;;0.90;83.00;;;;;;5063475;28;20020;-67
2022/12/03 03:51:37;;;;;;;54.55;27.42;;;0.80;83.30;;;;;;5066463;28;20060;-67
2022/12/03 03:54:04;;;;;;;56.63;27.90;;;0.80;82.70;;;;;;5063330;28;20113;-67
2022/12/03 03:56:31;;;;;;;46.58;25.30;;;0.80;83.60;;;;;;5058515;28;20372;-67
2022/12/03 03:58:57;;;;;;;57.35;28.48;;;0.80;83.60;;;;;;5067577;28;20056;-67
2022/12/03 04:01:23;;;;;;;53.47;27.27;;;0.80;83.80;;;;;;5063562;28;20076;-67
2022/12/03 04:03:49;;;;;;;66.93;33.83;;;0.70;83.30;;;;;;5071710;28;20177;-67
2022/12/03 04:06:15;;;;;;;47.47;26.30;;;0.70;83.20;;;;;;5064491;28;20468;-67
2022/12/03 04:08:40;;;;;;;57.25;27.63;;;0.70;82.40;;;;;;5068876;28;20021;-67
2022/12/03 04:13:50;;;;;;;49.08;26.02;;;0.70;82.90;;;;;;5068480;28;20050;-67
2022/12/03 04:16:15;;;;;;;55.45;26.50;;;0.70;84.10;;;;;;5072548;28;20119;-67
2022/12/03 04:18:42;;;;;;;49.42;25.67;;;0.60;84.30;;;;;;5072640;28;20032;-67
2022/12/03 04:24:04;;;;;;;52.22;26.98;;;0.70;84.40;;;;;;5047543;28;20484;-67
2022/12/03 04:29:15;;;;;;;50.65;26.40;;;0.60;84.90;;;;;;5071339;28;20364;-67
2022/12/03 04:37:10;;;;;;;53.45;28.40;;;0.60;85.30;;;;;;5059928;28;20032;-67
2022/12/03 04:39:37;;;;;;;43.47;23.30;;;0.50;85.80;;;;;;5063243;28;20082;-66
2022/12/03 04:42:04;;;;;;;44.40;24.05;;;0.50;85.90;;;;;;5068304;28;20036;-66
2022/12/03 04:44:36;;;;;;;43.42;24.02;;;0.40;85.70;;;;;;5074704;28;20032;-66
2022/12/03 04:47:03;;;;;;;38.47;23.38;;;0.40;86.50;;;;;;5076062;28;20061;-66
2022/12/03 04:49:29;;;;;;;37.88;22.50;;;0.40;87.00;;;;;;5062079;28;20126;-67
2022/12/03 04:51:55;;;;;;;41.25;22.52;;;0.40;87.50;;;;;;5053248;28;20505;-67
2022/12/03 04:54:21;;;;;;;47.30;26.13;;;0.40;87.60;;;;;;5046035;28;20147;-67
2022/12/03 04:56:46;;;;;;;46.03;24.35;;;0.30;87.00;;;;;;5047315;28;20065;-67
2022/12/03 04:59:13;;;;;;;46.65;24.40;;;0.40;86.00;;;;;;5046812;28;20025;-67
2022/12/03 05:01:39;;;;;;;51.40;26.27;;;0.40;86.40;;;;;;5046150;28;20124;-67
2022/12/03 05:04:04;;;;;;;40.42;22.15;;;0.40;87.60;;;;;;5064699;28;20115;-67
2022/12/03 05:06:30;;;;;;;44.22;24.35;;;0.40;87.00;;;;;;5071048;28;20024;-67
2022/12/03 05:08:56;;;;;;;46.15;25.38;;;0.40;87.50;;;;;;5063419;28;20449;-67
2022/12/03 05:11:21;;;;;;;49.08;26.40;;;0.40;87.60;;;;;;5062840;28;20017;-67
2022/12/03 05:13:47;;;;;;;54.40;27.38;;;0.40;87.60;;;;;;5056537;28;20104;-67
2022/12/03 05:16:15;;;;;;;53.85;27.25;;;0.40;87.30;;;;;;5065715;28;20371;-67
2022/12/03 05:18:41;;;;;;;52.63;27.65;;;0.40;86.90;;;;;;5074252;28;20058;-68
2022/12/03 05:21:07;;;;;;;52.13;28.13;;;0.40;86.00;;;;;;5060049;28;20079;-67
2022/12/03 05:23:32;;;;;;;55.45;27.98;;;0.40;84.90;;;;;;5051423;28;20037;-68
2022/12/03 05:25:58;;;;;;;54.35;27.55;;;0.50;85.20;;;;;;5065032;28;20084;-67
2022/12/03 05:28:23;;;;;;;58.00;29.45;;;0.50;86.30;;;;;;5053140;28;20087;-67
2022/12/03 05:30:50;;;;;;;60.22;30.13;;;0.50;85.90;;;;;;5045803;28;20021;-67
2022/12/03 05:33:15;;;;;;;54.60;28.77;;;0.50;86.60;;;;;;5058337;28;20348;-67
2022/12/03 05:35:44;;;;;;;47.25;26.60;;;0.50;85.90;;;;;;5061420;28;20083;-67
2022/12/03 05:38:09;;;;;;;51.70;28.50;;;0.50;86.50;;;;;;5057437;28;20029;-67
2022/12/03 05:40:35;;;;;;;49.72;28.70;;;0.50;86.80;;;;;;5055557;28;20320;-67
2022/12/03 05:43:00;;;;;;;53.15;28.60;;;0.50;86.80;;;;;;5062674;28;20029;-68
2022/12/03 05:45:29;;;;;;;48.10;27.63;;;0.50;86.90;;;;;;5060418;28;20120;-67
2022/12/03 05:47:56;;;;;;;46.75;26.42;;;0.50;86.80;;;;;;5057517;28;20020;-67
2022/12/03 05:50:24;;;;;;;55.45;29.08;;;0.50;87.90;;;;;;5063908;28;20017;-67
2022/12/03 05:52:50;;;;;;;52.13;28.20;;;0.50;88.40;;;;;;5070049;28;20097;-67
2022/12/03 05:55:16;;;;;;;47.95;27.17;;;0.50;88.20;;;;;;5073593;28;20414;-68
2022/12/03 05:57:42;;;;;;;54.50;29.00;;;0.50;87.70;;;;;;5061087;28;20416;-66
2022/12/03 06:00:13;;;;;;;50.58;27.13;;;0.50;88.00;;;;;;5061573;28;20421;-67
2022/12/03 06:02:39;;;;;;;53.55;29.15;;;0.60;88.10;;;;;;5068377;28;20040;-66
2022/12/03 06:05:06;;;;;;;60.25;30.95;;;0.60;88.10;;;;;;5059802;28;20077;-67
2022/12/03 06:07:31;;;;;;;57.78;29.58;;;0.60;88.10;;;;;;5071089;28;20150;-67
2022/12/03 06:09:57;;;;;;;54.50;28.10;;;0.60;87.90;;;;;;5065744;28;20068;-67
2022/12/03 06:12:22;;;;;;;55.60;27.90;;;0.60;87.50;;;;;;5050859;28;20070;-67
2022/12/03 06:14:48;;;;;;;47.80;26.27;;;0.60;88.30;;;;;;5062358;28;20420;-67
2022/12/03 06:17:13;;;;;;;62.67;29.92;;;0.60;87.10;;;;;;5062019;28;20028;-67
2022/12/03 06:19:42;;;;;;;51.47;27.15;;;0.60;88.20;;;;;;5055660;28;20029;-68
2022/12/03 06:22:07;;;;;;;54.45;27.92;;;0.60;87.30;;;;;;5062472;28;20313;-67
2022/12/03 06:24:33;;;;;;;71.68;36.45;;;0.60;88.00;;;;;;5075050;28;20035;-67
2022/12/03 06:26:58;;;;;;;58.97;31.38;;;0.60;88.00;;;;;;5062775;28;20048;-67
2022/12/03 06:29:24;;;;;;;67.60;33.65;;;0.60;88.80;;;;;;5068094;28;20052;-66
2022/12/03 06:31:52;;;;;;;58.47;29.65;;;0.60;88.80;;;;;;5065403;28;20040;-67
2022/12/03 06:34:18;;;;;;;60.38;30.08;;;0.60;89.70;;;;;;5075508;28;20100;-68
2022/12/03 06:36:45;;;;;;;49.55;26.85;;;0.60;90.00;;;;;;5062338;28;20112;-67
2022/12/03 06:39:11;;;;;;;49.53;27.45;;;0.60;89.40;;;;;;5063754;28;20029;-67
2022/12/03 06:41:37;;;;;;;48.83;27.70;;;0.60;89.30;;;;;;5058504;28;20040;-68
2022/12/03 06:44:02;;;;;;;56.30;29.00;;;0.60;89.40;;;;;;5054365;28;20029;-68
2022/12/03 06:46:28;;;;;;;50.75;26.52;;;0.60;89.10;;;;;;5069332;28;20020;-68
2022/12/03 06:48:56;;;;;;;52.25;26.50;;;0.70;89.00;;;;;;5063503;28;20025;-68
2022/12/03 06:51:22;;;;;;;52.22;26.08;;;0.70;88.70;;;;;;5054559;28;20313;-67
2022/12/03 06:53:48;;;;;;;51.00;27.13;;;0.60;88.80;;;;;;5048012;28;20029;-67
2022/12/03 06:56:13;;;;;;;49.20;26.40;;;0.60;87.70;;;;;;5049887;28;20107;-68
2022/12/03 06:58:39;;;;;;;53.30;27.38;;;0.70;88.00;;;;;;5047144;28;20036;-68
2022/12/03 07:01:04;;;;;;;53.97;27.98;;;0.70;89.30;;;;;;5053354;28;20052;-67
2022/12/03 07:03:30;;;;;;;53.92;27.60;;;0.70;88.90;;;;;;5053125;28;20414;-67
2022/12/03 07:05:55;;;;;;;55.53;29.77;;;0.70;88.40;;;;;;5055627;28;20079;-68
2022/12/03 07:08:21;;;;;;;53.75;30.55;;;0.70;88.50;;;;;;5064481;28;20032;-68
2022/12/03 07:10:47;;;;;;;61.17;32.80;;;0.70;88.50;;;;;;5061783;28;20021;-67
2022/12/03 07:13:18;;;;;;;64.57;33.88;;;0.70;89.10;;;;;;5065165;28;20029;-67
2022/12/03 07:15:44;;;;;;;58.40;30.02;;;0.80;88.70;;;;;;5060535;28;20412;-67
2022/12/03 07:18:09;;;;;;;51.95;26.50;;;0.80;88.50;;;;;;5058699;28;20188;-68
2022/12/03 07:20:35;;;;;;;50.72;27.38;;;0.80;88.80;;;;;;5063320;28;20376;-67
2022/12/03 07:23:04;;;;;;;52.58;26.60;;;0.80;88.90;;;;;;5057077;28;20056;-67
2022/12/03 07:25:32;;;;;;;46.55;24.33;;;0.80;89.00;;;;;;5055600;28;20392;-68
2022/12/03 07:28:01;;;;;;;46.42;24.30;;;0.80;88.30;;;;;;5055015;28;20045;-67
2022/12/03 07:30:29;;;;;;;41.28;23.83;;;0.80;88.30;;;;;;5067990;28;20025;-67
2022/12/03 07:32:55;;;;;;;44.97;23.77;;;0.90;86.90;;;;;;5058617;28;20071;-67
2022/12/03 07:35:23;;;;;;;50.20;24.48;;;1.00;88.30;;;;;;5057448;28;20033;-67
2022/12/03 07:37:52;;;;;;;43.65;23.10;;;1.00;89.40;;;;;;5061748;28;20039;-66
2022/12/03 07:40:20;;;;;;;43.28;22.52;;;1.00;90.00;;;;;;5064586;28;20032;-66
2022/12/03 07:42:46;;;;;;;41.65;22.60;;;1.00;90.40;;;;;;5056823;28;20024;-67
2022/12/03 07:45:11;;;;;;;39.47;21.58;;;1.00;90.60;;;;;;5064750;28;20074;-68
2022/12/03 07:47:37;;;;;;;44.65;22.35;;;1.00;90.20;;;;;;5058285;28;20124;-68
2022/12/03 07:50:02;;;;;;;37.83;22.30;;;1.10;90.20;;;;;;5058605;28;20029;-67
2022/12/03 07:52:28;;;;;;;39.45;21.70;;;1.20;90.90;;;;;;5055792;28;20348;-68
2022/12/03 07:54:53;;;;;;;39.88;22.60;;;1.30;91.70;;;;;;5056837;28;20025;-68
2022/12/03 07:57:19;;;;;;;40.55;23.23;;;1.30;92.70;;;;;;5056102;28;20104;-67
2022/12/03 07:59:47;;;;;;;36.22;19.63;;;1.30;92.50;;;;;;5056286;28;20029;-67
2022/12/03 08:02:13;;;;;;;38.97;21.33;;;1.40;93.70;;;;;;5058001;28;20048;-68
2022/12/03 08:04:38;;;;;;;41.85;21.08;;;1.30;94.40;;;;;;5057730;28;20060;-68
2022/12/03 08:07:04;;;;;;;41.63;21.65;;;1.30;94.30;;;;;;5057206;28;20321;-68
2022/12/03 08:09:30;;;;;;;43.10;22.52;;;1.40;94.30;;;;;;5056794;28;20056;-68
2022/12/03 08:12:01;;;;;;;38.33;20.40;;;1.40;94.50;;;;;;5057224;28;20048;-68
2022/12/03 08:14:27;;;;;;;46.38;22.65;;;1.40;93.20;;;;;;5056515;28;20070;-68
2022/12/03 08:16:52;;;;;;;42.42;21.45;;;1.40;93.70;;;;;;5053040;28;20417;-67
2022/12/03 08:19:18;;;;;;;45.65;24.10;;;1.40;94.00;;;;;;5056509;28;20032;-67
2022/12/03 08:21:44;;;;;;;38.83;22.05;;;1.30;93.40;;;;;;5052072;28;20059;-68
2022/12/03 08:24:10;;;;;;;47.78;24.73;;;1.30;93.70;;;;;;5053646;28;20039;-67
2022/12/03 08:26:35;;;;;;;43.90;22.92;;;1.40;93.80;;;;;;5040627;28;20059;-67
2022/12/03 08:29:01;;;;;;;41.53;22.67;;;1.40;93.50;;;;;;5051961;28;20016;-67
2022/12/03 08:31:26;;;;;;;43.70;23.23;;;1.40;93.00;;;;;;5040151;28;20022;-67
2022/12/03 08:33:58;;;;;;;43.90;23.48;;;1.50;93.90;;;;;;5042851;28;20107;-68
2022/12/03 08:36:28;;;;;;;39.10;21.50;;;1.60;94.10;;;;;;5036719;28;20037;-67
2022/12/03 08:39:32;;;;;;;36.65;19.83;;;1.60;95.00;;;;;;5036399;28;20029;-67
2022/12/03 08:45:38;;;;;;;39.28;21.05;;;1.60;94.80;;;;;;5050366;28;20045;-68
2022/12/03 08:48:24;;;;;;;40.92;22.50;;;1.70;94.30;;;;;;5040353;28;20024;-68
2022/12/03 08:50:51;;;;;;;35.03;18.50;;;1.70;95.40;;;;;;5037660;28;20028;-68
2022/12/03 08:53:26;;;;;;;34.85;19.00;;;1.90;95.80;;;;;;5039158;28;20036;-68
2022/12/03 08:55:53;;;;;;;35.38;18.40;;;2.00;97.60;;;;;;5036865;28;20135;-68
2022/12/03 08:58:40;;;;;;;39.97;20.58;;;2.00;97.30;;;;;;5044316;28;20035;-68
2022/12/03 09:01:11;;;;;;;29.45;16.35;;;2.20;96.50;;;;;;5040206;28;20039;-68
2022/12/03 09:03:40;;;;;;;26.60;16.38;;;2.30;98.00;;;;;;5038755;28;20048;-68
2022/12/03 09:06:11;;;;;;;32.22;18.63;;;2.40;98.00;;;;;;5036187;28;20037;-68
2022/12/03 09:08:36;;;;;;;42.67;24.58;;;2.60;98.00;;;;;;5039573;28;20021;-68
2022/12/03 09:11:02;;;;;;;40.53;21.42;;;2.50;98.00;;;;;;5041256;28;20628;-68
2022/12/03 09:13:28;;;;;;;113.10;58.10;;;2.70;98.00;;;;;;5037502;28;20032;-68
2022/12/03 09:15:53;;;;;;;28.35;16.77;;;2.80;98.00;;;;;;5037137;28;20095;-68
2022/12/03 09:18:19;;;;;;;28.10;16.10;;;2.90;98.00;;;;;;5047973;28;20059;-68
2022/12/03 09:20:44;;;;;;;30.10;16.35;;;3.00;98.00;;;;;;5049007;28;20033;-68
2022/12/03 09:23:10;;;;;;;29.75;16.90;;;2.90;98.00;;;;;;5037064;28;20500;-68
2022/12/03 09:25:35;;;;;;;28.45;15.85;;;2.70;98.00;;;;;;5038219;28;20486;-68
2022/12/03 09:28:01;;;;;;;27.48;15.82;;;2.50;98.00;;;;;;5046509;28;20278;-68
2022/12/03 09:30:27;;;;;;;28.48;15.50;;;2.30;98.00;;;;;;5053893;28;20025;-68
2022/12/03 09:32:52;;;;;;;29.05;15.20;;;2.30;98.00;;;;;;5039327;28;20067;-68
2022/12/03 09:35:18;;;;;;;25.23;14.25;;;2.20;98.00;;;;;;5039417;28;20037;-68
2022/12/03 09:37:44;;;;;;;25.90;14.95;;;2.10;98.00;;;;;;5040634;28;20414;-68
2022/12/03 09:40:10;;;;;;;27.35;14.82;;;2.10;98.00;;;;;;5041721;28;20091;-68
2022/12/03 09:42:36;;;;;;;29.50;15.98;;;2.10;98.00;;;;;;5036980;28;20029;-68
2022/12/03 09:45:09;;;;;;;28.27;15.60;;;2.10;98.00;;;;;;5040885;28;20067;-68
2022/12/03 09:47:35;;;;;;;30.17;17.13;;;2.00;98.00;;;;;;5035544;28;20017;-69
2022/12/03 09:50:01;;;;;;;27.95;14.27;;;2.00;98.00;;;;;;5047259;28;20032;-68
2022/12/03 09:52:30;;;;;;;27.23;15.10;;;2.10;98.00;;;;;;5036127;28;20468;-68
2022/12/03 09:54:56;;;;;;;22.50;13.77;;;2.10;98.00;;;;;;5041351;28;20155;-68
2022/12/03 09:57:22;;;;;;;25.25;14.65;;;2.10;98.00;;;;;;5051707;28;20155;-68
2022/12/03 09:59:48;;;;;;;23.55;13.88;;;2.20;98.00;;;;;;5036952;28;20036;-68
2022/12/03 10:02:25;;;;;;;29.23;16.13;;;2.20;98.00;;;;;;5034893;28;20942;-68
2022/12/03 10:04:52;;;;;;;29.60;16.15;;;2.30;98.00;;;;;;5036005;28;20035;-68
2022/12/03 10:07:18;;;;;;;27.23;15.10;;;2.30;98.00;;;;;;5040435;28;20072;-68
2022/12/03 10:09:44;;;;;;;26.58;15.77;;;2.20;98.00;;;;;;5037342;28;20123;-68
2022/12/03 10:12:13;;;;;;;29.83;16.23;;;2.30;98.00;;;;;;5038672;28;20153;-68
2022/12/03 10:14:41;;;;;;;31.08;17.15;;;2.20;98.00;;;;;;5036841;28;20059;-68
2022/12/03 10:17:09;;;;;;;32.55;17.63;;;2.10;98.00;;;;;;5037246;28;20032;-68
2022/12/03 10:19:36;;;;;;;28.38;16.13;;;2.00;98.00;;;;;;5055545;28;20033;-68
2022/12/03 10:22:23;;;;;;;28.63;14.80;;;2.00;98.00;;;;;;5047685;28;20486;-68
2022/12/03 10:25:12;;;;;;;28.30;15.00;;;2.10;98.00;;;;;;5053243;28;20045;-68
2022/12/03 10:27:39;;;;;;;32.30;17.42;;;2.10;98.00;;;;;;5055457;28;20025;-68
2022/12/03 10:30:15;;;;;;;28.02;14.85;;;2.20;98.00;;;;;;5053551;28;20014;-68
2022/12/03 10:32:43;;;;;;;33.35;18.13;;;2.20;98.00;;;;;;5055011;28;20041;-67
2022/12/03 10:35:18;;;;;;;33.22;17.60;;;2.30;98.00;;;;;;5063536;28;20302;-68
2022/12/03 10:38:04;;;;;;;30.15;15.32;;;2.20;98.00;;;;;;5055156;28;20313;-67
2022/12/03 10:40:37;;;;;;;30.70;16.02;;;2.10;98.00;;;;;;5049179;28;20303;-70
2022/12/03 10:43:18;;;;;;;33.50;18.27;;;2.10;98.00;;;;;;5058795;28;20025;-68
2022/12/03 10:46:02;;;;;;;28.33;15.73;;;2.10;98.00;;;;;;5060185;28;20333;-69
2022/12/03 10:48:28;;;;;;;29.27;15.48;;;2.00;98.00;;;;;;5059506;28;20308;-69
2022/12/03 10:51:03;;;;;;;31.50;16.77;;;2.10;98.00;;;;;;5058663;28;20029;-68
2022/12/03 10:53:34;;;;;;;29.13;15.68;;;2.10;98.00;;;;;;5063063;28;20079;-68
2022/12/03 10:56:03;;;;;;;26.13;14.30;;;2.10;98.00;;;;;;5064171;28;20025;-68
2022/12/03 10:58:32;;;;;;;27.05;14.82;;;2.10;98.00;;;;;;5065470;28;20036;-68
2022/12/03 11:01:02;;;;;;;31.50;15.32;;;2.00;98.00;;;;;;5057945;28;20029;-68
2022/12/03 11:03:32;;;;;;;28.63;15.27;;;2.00;98.00;;;;;;5066333;28;20020;-68
2022/12/03 11:06:00;;;;;;;26.90;14.52;;;2.00;98.00;;;;;;5060978;28;20029;-68
2022/12/03 11:08:30;;;;;;;27.05;14.73;;;1.90;98.00;;;;;;5074236;28;20053;-68
2022/12/03 11:10:59;;;;;;;31.02;16.42;;;2.00;98.00;;;;;;5059862;28;20057;-68
2022/12/03 11:13:29;;;;;;;28.80;16.80;;;2.10;98.00;;;;;;5057874;28;20278;-68
2022/12/03 11:16:01;;;;;;;31.63;17.42;;;2.20;98.00;;;;;;5071558;28;20355;-68
2022/12/03 11:18:36;;;;;;;30.98;16.77;;;2.30;98.00;;;;;;5058071;28;20029;-68
2022/12/03 11:21:08;;;;;;;26.92;15.85;;;2.40;98.00;;;;;;5058447;28;20025;-68
2022/12/03 11:23:46;;;;;;;27.02;15.32;;;2.40;98.00;;;;;;5054546;28;20303;-68
2022/12/03 11:26:37;;;;;;;27.83;15.05;;;2.30;98.00;;;;;;5060019;28;20040;-68
2022/12/03 11:29:11;;;;;;;30.27;15.93;;;2.20;98.00;;;;;;5060855;28;20060;-68
2022/12/03 11:31:45;;;;;;;27.98;14.75;;;2.10;98.00;;;;;;5057096;28;20055;-68
2022/12/03 11:34:17;;;;;;;;;;;2.10;98.00;;;;;;5069232;28;20025;-68
2022/12/03 11:37:10;;;;;;;30.67;15.73;;;2.10;98.00;;;;;;5057677;28;20003;-68
2022/12/03 11:39:48;;;;;;;27.85;16.42;;;2.10;98.00;;;;;;5058385;28;20425;-68
2022/12/03 11:42:26;;;;;;;27.92;14.65;;;2.30;98.00;;;;;;5057589;28;20441;-68
2022/12/03 11:45:03;;;;;;;25.88;15.00;;;2.30;98.00;;;;;;5046458;28;20033;-68
2022/12/03 11:47:31;;;;;;;32.35;17.92;;;2.40;98.00;;;;;;5056617;28;20037;-68
2022/12/03 11:49:57;;;;;;;27.42;15.75;;;2.40;98.00;;;;;;5043667;28;20064;-68
2022/12/03 11:52:28;;;;;;;29.33;17.02;;;2.50;98.00;;;;;;5057549;28;20067;-68
2022/12/03 11:55:01;;;;;;;36.40;18.10;;;2.50;98.00;;;;;;5056228;28;20123;-68
2022/12/03 11:57:34;;;;;;;30.70;17.10;;;2.50;98.00;;;;;;5057207;28;20032;-68
2022/12/03 12:00:16;;;;;;;29.88;16.08;;;2.70;98.00;;;;;;5054963;28;20033;-68
2022/12/03 12:02:43;;;;;;;27.48;15.55;;;2.70;98.00;;;;;;5056159;28;20357;-68
2022/12/03 12:05:19;;;;;;;31.20;17.77;;;2.50;98.00;;;;;;5056139;28;20098;-68
2022/12/03 12:07:46;;;;;;;32.15;17.95;;;2.50;98.00;;;;;;5057910;28;20021;-68
2022/12/03 12:10:39;;;;;;;28.15;16.00;;;2.40;98.00;;;;;;5053689;28;20029;-68
2022/12/03 12:13:05;;;;;;;27.45;15.60;;;2.30;98.00;;;;;;5048996;28;20087;-68
2022/12/03 12:15:32;;;;;;;28.48;15.15;;;2.20;98.00;;;;;;5054888;28;20035;-68
2022/12/03 12:18:33;;;;;;;27.30;15.40;;;2.30;98.00;;;;;;5057119;28;20099;-68
2022/12/03 12:21:35;;;;;;;31.58;16.75;;;2.30;98.00;;;;;;5053825;28;20036;-68
2022/12/03 12:24:47;;;;;;;31.50;17.13;;;2.30;98.00;;;;;;5057843;28;20037;-68
2022/12/03 12:27:15;;;;;;;28.50;15.65;;;2.30;98.00;;;;;;5055678;28;20037;-68
2022/12/03 12:29:44;;;;;;;29.27;15.48;;;2.50;98.00;;;;;;5066033;28;20079;-68
2022/12/03 12:32:12;;;;;;;26.38;14.90;;;2.40;98.00;;;;;;5046671;28;20377;-68
2022/12/03 12:34:47;;;;;;;29.17;16.05;;;2.40;98.00;;;;;;5057744;28;20028;-68
2022/12/03 12:37:34;;;;;;;29.85;16.50;;;2.40;98.00;;;;;;5057582;28;20066;-68
2022/12/03 12:40:05;;;;;;;30.10;16.80;;;2.50;98.00;;;;;;5038473;28;20078;-68
2022/12/03 12:42:35;;;;;;;30.15;17.45;;;2.50;98.00;;;;;;5037676;28;20024;-68
2022/12/03 12:45:11;;;;;;;34.70;18.80;;;2.40;98.00;;;;;;5057347;28;20053;-68
2022/12/03 12:47:36;;;;;;;29.58;16.30;;;2.30;98.00;;;;;;5055464;28;20405;-67
2022/12/03 12:50:09;;;;;;;36.10;19.98;;;2.30;98.00;;;;;;5045713;28;20070;-68
2022/12/03 12:52:40;;;;;;;30.73;17.13;;;2.30;98.00;;;;;;5057187;28;20024;-68
2022/12/03 12:55:08;;;;;;;38.03;22.10;;;2.30;98.00;;;;;;5050847;28;20075;-68
2022/12/03 12:57:34;;;;;;;32.70;18.92;;;2.20;98.00;;;;;;5057332;28;20491;-68
2022/12/03 12:59:59;;;;;;;33.55;19.33;;;2.30;98.00;;;;;;5046945;28;20056;-68
2022/12/03 13:02:25;;;;;;;31.35;17.92;;;2.30;98.00;;;;;;5043844;28;20663;-68
2022/12/03 13:04:51;;;;;;;37.83;21.80;;;2.40;98.00;;;;;;5044171;28;20114;-68